1966 KATHY (1966280N13154)


On this page: IBTrACS data - Map and Plots - Positions - Intensities - Original source data

Summary

Start Oct 6
End Oct 22
Basins EP
WP
LMI 100 kt
Sources jtwc_wp
tokyo
cma
hko
td9636
td9635
ds824_wp
In WMO? Yes
Previous storm 1966 LORRAINE (EP)
Previous in basin 1966 MISSING (WP)
Concurrent storms 1966 INEZ (NA)
1966 KATHY (WP)
1966 30W (WP)
1966 12B (NI)
1966 MAGGIE (EP)
1966 TD1021 (WP)
1966 11A (NI)
Next in basin 1966 30W (WP)
Next storm 1966 30W (WP)

top of page IBTrACS Data: File Access

No storm imagery available

top of page Plots:

Map of storm track will not appear if FTP is down
Time series of cyclone Maximum Sustained Wind will not appear if FTP is down
Time series of cyclone Minimum Central Pressure will not appear if FTP is down

top of page Track Data:Position

jtwc_wp tokyo cma hko td9636 td9635 ds824_wp
Date Lat Lon Lat Lon Lat Lon Lat Lon Lat Lon Lat Lon Lat Lon
1966-10-06 18:00:00 13.1 154.0 13.1 154.0
1966-10-07 00:00:00 13.3 153.4 13.3 153.4
1966-10-07 06:00:00 14.0 153.0 14.0 153.0
1966-10-07 12:00:00 14.9 152.6 14.9 152.6
1966-10-07 18:00:00 16.0 152.2 16.0 152.2
1966-10-08 00:00:00 17.2 151.3 17.2 151.3
1966-10-08 06:00:00 18.2 150.6 18.3 150.6 18.0 150.7 18.5 150.3 18.2 150.6 18.2 150.6
1966-10-08 12:00:00 18.8 150.5 18.7 150.6 18.7 150.6 18.9 150.3 18.8 150.5 18.8 150.5 18.8 150.5
1966-10-08 18:00:00 19.2 150.5 19.3 150.7 19.3 150.7 19.4 150.3 19.3 150.5 19.2 150.5 19.2 150.5
1966-10-09 00:00:00 19.7 150.6 19.7 150.8 19.7 150.8 19.8 150.4 19.7 150.6 19.7 150.6 19.7 150.6
1966-10-09 06:00:00 20.0 150.9 20.0 150.9 20.0 150.9 20.1 150.7 19.9 150.9 20.0 150.9 20.0 150.9
1966-10-09 12:00:00 19.9 151.3 19.8 151.3 19.8 151.4 19.9 151.0 19.9 151.3 19.9 151.3 19.9 151.3
1966-10-09 18:00:00 19.7 151.5 19.6 151.6 19.6 151.5 19.7 151.2 19.7 151.5 19.7 151.5 19.7 151.5
1966-10-10 00:00:00 19.4 151.7 19.4 151.5 19.3 151.6 19.6 151.3 19.4 151.7 19.4 151.7 19.4 151.7
1966-10-10 06:00:00 19.2 151.7 19.3 151.6 19.2 151.8 19.3 151.6 19.3 151.8 19.2 151.7 19.2 151.7
1966-10-10 12:00:00 19.2 151.7 19.2 151.7 19.1 151.8 19.2 151.6 19.2 151.7 19.2 151.7 19.2 151.7
1966-10-10 18:00:00 19.0 151.7 19.1 151.6 18.9 151.6 19.0 151.4 19.1 151.5 19.0 151.7 19.0 151.7
1966-10-11 00:00:00 19.1 151.3 19.1 151.4 19.1 151.3 19.1 151.1 19.1 151.3 19.1 151.3 19.1 151.3
1966-10-11 06:00:00 19.2 151.1 19.3 151.0 19.3 151.2 19.3 150.9 19.2 151.1 19.2 151.1 19.2 151.1
1966-10-11 12:00:00 19.4 150.9 19.5 150.8 19.5 150.9 19.6 150.7 19.4 150.9 19.4 150.9 19.4 150.9
1966-10-11 18:00:00 19.6 150.7 19.8 150.6 19.7 150.6 19.7 150.5 19.7 150.6 19.6 150.7 19.6 150.7
1966-10-12 00:00:00 20.1 150.4 20.2 150.5 20.1 150.4 20.2 150.2 20.1 150.4 20.1 150.4 20.1 150.4
1966-10-12 06:00:00 20.4 150.3 20.4 150.3 20.4 150.3 20.5 150.2 20.4 150.3 20.4 150.3 20.4 150.3
1966-10-12 12:00:00 20.8 150.3 20.7 150.4 20.7 150.3 20.7 150.3 20.8 150.3 20.8 150.3 20.8 150.3
1966-10-12 18:00:00 21.1 150.5 21.1 150.5 21.1 150.5 21.1 150.3 21.1 150.5 21.1 150.5 21.1 150.5
jtwc_wp tokyo cma hko td9636 td9635 ds824_wp
1966-10-13 00:00:00 21.5 150.8 21.5 150.9 21.5 150.9 21.7 150.6 21.5 150.8 21.5 150.8 21.5 150.8
1966-10-13 06:00:00 22.0 151.3 22.0 151.4 22.0 151.3 22.2 151.2 22.0 151.3 22.0 151.3 22.0 151.3
1966-10-13 12:00:00 22.7 152.0 22.5 152.0 22.6 152.0 22.7 151.8 22.7 152.0 22.7 152.0 22.7 152.0
1966-10-13 18:00:00 23.4 152.8 23.2 152.8 23.2 152.8 23.4 152.5 23.4 152.8 23.4 152.8 23.4 152.8
1966-10-14 00:00:00 24.2 153.8 24.0 153.5 24.2 153.5 24.2 153.4 24.2 153.8 24.2 153.8 24.2 153.8
1966-10-14 06:00:00 25.1 154.9 25.1 154.8 25.2 154.9 25.2 154.7 25.2 154.9 25.1 154.9 25.1 154.9
1966-10-14 12:00:00 26.1 156.0 25.8 156.2 25.9 156.1 26.1 155.9 26.1 156.0 26.1 156.0 26.1 156.0
1966-10-14 18:00:00 26.9 157.0 26.7 157.0 26.9 157.0 26.9 156.9 26.8 156.9 26.9 157.0 26.9 157.0
1966-10-15 00:00:00 27.5 157.8 27.6 157.8 27.6 157.9 27.6 157.7 27.5 157.8 27.5 157.8 27.5 157.8
1966-10-15 06:00:00 28.3 158.9 28.3 158.7 28.3 159.0 28.4 158.7 28.3 159.0 28.3 158.9 28.3 158.9
1966-10-15 12:00:00 29.0 160.2 29.0 159.9 29.0 159.9 28.9 160.0 29.0 160.2 29.0 160.2 29.0 160.2
1966-10-15 18:00:00 29.4 161.2 29.2 161.0 29.2 160.8 29.2 161.0 29.4 161.2 29.4 161.2 29.4 161.2
1966-10-16 00:00:00 29.6 162.1 29.3 162.0 29.3 162.0 29.5 161.8 29.6 162.1 29.6 162.1 29.6 162.1
1966-10-16 06:00:00 29.9 163.3 29.7 163.2 29.7 163.2 29.8 163.0 29.9 163.2 29.9 163.3 29.9 163.3
1966-10-16 12:00:00 30.2 164.4 30.2 164.2 30.2 164.2 30.2 164.2 30.2 164.4 30.2 164.4 30.2 164.4
1966-10-16 18:00:00 30.5 165.5 30.4 165.2 30.5 165.2 30.5 165.3 30.5 165.5 30.5 165.5 30.5 165.5
1966-10-17 00:00:00 30.8 166.6 30.7 166.2 30.8 166.2 30.8 166.4 30.8 166.6 30.8 166.6 30.8 166.6
1966-10-17 06:00:00 31.2 167.6 31.2 167.3 31.2 167.4 31.2 167.6 31.1 167.7 31.2 167.6 31.2 167.6
1966-10-17 12:00:00 31.6 168.8 31.6 168.8 31.6 168.8 31.6 168.8 31.6 168.8 31.6 168.8 31.6 168.8
1966-10-17 18:00:00 32.2 169.8 32.5 170.0 32.4 170.0 32.4 169.8 32.2 169.7 32.2 169.8 32.2 169.8
1966-10-18 00:00:00 33.1 170.6 33.3 170.7 33.3 170.7 33.3 170.6 33.1 170.6 33.1 170.6 33.1 170.6
1966-10-18 06:00:00 34.4 171.3 34.5 171.4 34.5 171.4 34.3 171.4 34.2 171.4 34.4 171.3 34.4 171.3
1966-10-18 12:00:00 35.5 172.2 35.0 172.1 35.2 172.1 35.4 172.4 35.5 172.2 35.5 172.2 35.5 172.2
1966-10-18 18:00:00 37.0 173.0 36.4 172.8 36.4 172.8 36.7 173.0 36.9 173.0 37.0 173.0 37.0 173.0
jtwc_wp tokyo cma hko td9636 td9635 ds824_wp
1966-10-19 00:00:00 38.3 173.8 37.6 173.7 37.6 173.7 38.0 173.8 38.3 173.8 38.3 173.8 38.3 173.8
1966-10-19 06:00:00 39.8 174.7 39.0 174.8 39.0 174.8 39.5 175.0 39.7 174.7 39.8 174.7 39.8 174.7
1966-10-19 12:00:00 41.1 175.8 40.5 176.0 40.5 176.0 41.0 176.1 41.1 175.8 41.1 175.8 41.1 175.8
1966-10-19 18:00:00 42.3 177.0 41.9 177.2 41.9 177.2 42.1 177.5 42.3 177.1 42.3 177.0 42.3 177.0
1966-10-20 00:00:00 43.4 178.5 43.5 178.6 43.5 178.6 43.4 178.7 43.4 178.5 43.4 178.5 43.4 178.5
1966-10-20 06:00:00 44.4 180.0 45.0 180.0 45.0 180.0 45.0 180.0 44.4 180.0 44.4 180.0
1966-10-20 12:00:00 44.5 -179.8 46.0 182.0 45.3 181.6
1966-10-20 18:00:00 45.0 -176.7 45.0 183.3
1966-10-21 00:00:00 44.0 -175.0 44.0 185.0
1966-10-21 06:00:00 43.5 -174.7 43.5 185.3
1966-10-21 12:00:00 43.0 -172.5 43.0 187.5
1966-10-21 18:00:00 43.0 -170.0 43.0 190.0
1966-10-22 00:00:00 43.5 -166.0 43.5 194.0
1966-10-22 06:00:00 44.5 -163.8 44.5 196.2
1966-10-22 12:00:00 46.5 -158.0 46.5 202.0

top of pageTrack Data:Intensity

jtwc_wp tokyo cma hko td9636 td9635 ds824_wp
Date Wind Pres Wind Pres Wind Pres Wind Pres Wind Pres Wind Pres Wind Pres
1966-10-06 18:00:00 1008. 1008.
1966-10-07 00:00:00 1008. 1008.
1966-10-07 06:00:00 1006. 1008.
1966-10-07 12:00:00 1008. 1008.
1966-10-07 18:00:00 1006. 1006.
1966-10-08 00:00:00 1006. 1006.
1966-10-08 06:00:00 30. 1004. 29. 1004. 25. 1003. 30. 1002. 30.
1966-10-08 12:00:00 30. 1000. 29. 1000. 25. 1001. 30. 30. 998. 30.
1966-10-08 18:00:00 30. 996. 39. 996. 30. 996. 30. 32. 995. 30.
1966-10-09 00:00:00 40. 990. 49. 989. 35. 989. 38. 38. 990. 40.
1966-10-09 06:00:00 40. 985. 49. 983. 40. 982. 38. 42. 983. 40.
1966-10-09 12:00:00 50. 975. 58. 978. 55. 980. 52. 52. 980. 50.
1966-10-09 18:00:00 65. 970. 68. 973. 60. 975. 65. 65. 976. 65.
1966-10-10 00:00:00 75. 966. 78. 970. 70. 970. 75. 75. 970. 75.
1966-10-10 06:00:00 80. 967. 78. 969. 70. 975. 75. 80. 975. 80.
1966-10-10 12:00:00 80. 967. 78. 968. 70. 975. 80. 80. 975. 80.
1966-10-10 18:00:00 80. 967. 78. 967. 70. 970. 80. 80. 970. 80.
1966-10-11 00:00:00 80. 967. 78. 967. 70. 970. 80. 80. 967. 80.
1966-10-11 06:00:00 80. 965. 68. 969. 70. 970. 80. 80. 968. 80.
1966-10-11 12:00:00 80. 965. 68. 972. 70. 970. 80. 80. 970. 80.
1966-10-11 18:00:00 80. 970. 68. 976. 65. 975. 80. 78. 972. 80.
1966-10-12 00:00:00 75. 975. 68. 976. 65. 975. 75. 75. 974. 75.
1966-10-12 06:00:00 80. 975. 68. 976. 70. 970. 75. 80. 976. 80.
1966-10-12 12:00:00 85. 975. 68. 977. 75. 970. 85. 85. 978. 85.
1966-10-12 18:00:00 85. 975. 78. 975. 75. 970. 85. 85. 975. 85.
jtwc_wp tokyo cma hko td9636 td9635 ds824_wp
1966-10-13 00:00:00 85. 966. 78. 969. 75. 970. 85. 85. 968. 85.
1966-10-13 06:00:00 85. 966. 78. 963. 75. 965. 85. 85. 962. 85.
1966-10-13 12:00:00 90. 960. 78. 958. 80. 955. 90. 90. 958. 90.
1966-10-13 18:00:00 95. 960. 87. 953. 85. 950. 90. 95. 952. 95.
1966-10-14 00:00:00 100. 950. 97. 949. 90. 950. 100. 100. 949. 100.
1966-10-14 06:00:00 100. 947. 87. 952. 90. 950. 100. 100. 951. 100.
1966-10-14 12:00:00 100. 955. 78. 957. 90. 960. 100. 100. 957. 100.
1966-10-14 18:00:00 100. 958. 78. 961. 90. 960. 100. 100. 960. 100.
1966-10-15 00:00:00 100. 960. 68. 963. 90. 960. 100. 100. 959. 100.
1966-10-15 06:00:00 90. 960. 68. 964. 80. 960. 100. 90. 960. 90.
1966-10-15 12:00:00 85. 960. 68. 965. 80. 960. 85. 85. 965. 85.
1966-10-15 18:00:00 85. 958. 68. 962. 80. 960. 85. 85. 962. 85.
1966-10-16 00:00:00 85. 955. 78. 957. 80. 960. 85. 85. 956. 85.
1966-10-16 06:00:00 80. 955. 78. 955. 80. 960. 85. 80. 960. 80.
1966-10-16 12:00:00 75. 955. 78. 955. 70. 960. 75. 75. 964. 75.
1966-10-16 18:00:00 75. 956. 78. 955. 70. 960. 75. 75. 961. 75.
1966-10-17 00:00:00 75. 960. 78. 955. 70. 960. 75. 75. 958. 75.
1966-10-17 06:00:00 75. 960. 78. 960. 70. 960. 75. 75. 961. 75.
1966-10-17 12:00:00 75. 965. 68. 968. 70. 960. 75. 75. 968. 75.
1966-10-17 18:00:00 85. 970. 68. 969. 70. 960. 75. 85. 969. 85.
1966-10-18 00:00:00 90. 965. 68. 965. 65. 960. 90. 90. 965. 90.
1966-10-18 06:00:00 90. 965. 68. 963. 65. 960. 90. 90. 963. 90.
1966-10-18 12:00:00 90. 962. 68. 963. 65. 960. 90. 90. 962. 90.
1966-10-18 18:00:00 90. 962. 68. 962. 65. 960. 90. 90. 961. 90.
jtwc_wp tokyo cma hko td9636 td9635 ds824_wp
1966-10-19 00:00:00 85. 960. 68. 961. 65. 960. 85. 85. 961. 85.
1966-10-19 06:00:00 75. 960. 68. 960. 65. 960. 85. 75. 960. 75.
1966-10-19 12:00:00 65. 958. 68. 960. 60. 965. 65. 65. 960. 65.
1966-10-19 18:00:00 65. 958. 68. 959. 60. 965. 65. 65. 959. 65.
1966-10-20 00:00:00 60. 958. 68. 958. 55. 965. 60. 60. 958. 60.
1966-10-20 06:00:00 55. 958. 68. 958. 50. 965. 55. 958. 55.
1966-10-20 12:00:00 60. 958. 60.
1966-10-20 18:00:00 50. 50.
1966-10-21 00:00:00 50. 50.
1966-10-21 06:00:00 40. 40.
1966-10-21 12:00:00 40. 40.
1966-10-21 18:00:00 35. 35.
1966-10-22 00:00:00 40. 40.
1966-10-22 06:00:00 35. 35.
1966-10-22 12:00:00 30. 30.

top of page Links to source data

Source Source file Format
jtwc_wp bwp251966.txt ATCF
tokyo bst_all.txt:Line=15365:KATHY:6629 JMA text table
cma CH1966BST.txt:Storm=34:Kathy CMA text table
hko tc-besttrack-data-current.txt:Line=4346:KATHY HKO Text table
td9636 cons_worldwide_trop_cyclone_18710101-19891231-003:Line=21216 TD 9636
td9635 typhoons-analogs_19450101-19761231.corrected:Line=12121 TD 9635
ds824_wp w_npac.dat:579:KATHY HURDAT